Time;durP1;ratioP1;P1;durP2;ratioP2;P2;SDS_P1;SDS_P2;PMS_P1;PMS_P2;Temp;Humidity;BMP_temperature;BMP_pressure;BME280_temperature;BME280_humidity;BME280_pressure;Samples;Min_cycle;Max_cycle;Signal;HPM_P1;HPM_P2
2022/05/01 00:00:47;;;;;;;;;4.50;4.50;;;;;18.23;48.37;102621.31;5109806;28;8785;-69
2022/05/01 00:03:30;;;;;;;;;4.50;4.25;;;;;18.23;48.56;102616.00;5091813;28;8791;-69
2022/05/01 00:05:59;;;;;;;;;6.00;6.00;;;;;18.19;48.43;102617.72;5089887;28;8884;-69
2022/05/01 00:08:25;;;;;;;;;6.75;4.50;;;;;18.21;48.52;102613.38;5091615;28;9586;-71
2022/05/01 00:10:50;;;;;;;;;5.50;5.50;;;;;18.22;48.22;102617.75;5090722;28;9557;-71
2022/05/01 00:13:15;;;;;;;;;5.25;4.75;;;;;18.18;48.28;102615.91;5098421;28;8823;-71
2022/05/01 00:15:42;;;;;;;;;8.50;7.00;;;;;18.16;48.12;102615.03;5112193;28;8834;-71
2022/05/01 00:18:07;;;;;;;;;6.50;5.50;;;;;18.18;47.89;102610.63;5110754;28;8765;-71
2022/05/01 00:20:33;;;;;;;;;4.75;4.75;;;;;18.15;47.97;102610.59;5111736;28;9654;-71
2022/05/01 00:22:58;;;;;;;;;4.25;3.75;;;;;18.12;48.38;102602.59;5111425;28;8789;-71
2022/05/01 00:25:23;;;;;;;;;8.00;6.00;;;;;18.13;48.18;102598.22;5110691;28;8785;-71
2022/05/01 00:27:48;;;;;;;;;5.50;5.25;;;;;18.12;48.30;102609.63;5110939;28;8793;-71
2022/05/01 00:30:14;;;;;;;;;9.50;8.25;;;;;18.12;48.54;102607.88;5111553;28;8816;-71
2022/05/01 00:38:07;;;;;;;;;6.25;4.75;;;;;18.11;48.21;102598.16;5110657;28;9652;-71
2022/05/01 00:40:32;;;;;;;;;5.50;5.50;;;;;18.10;48.11;102590.22;5110500;28;9757;-71
2022/05/01 00:43:01;;;;;;;;;5.75;5.75;;;;;18.11;48.38;102599.94;5111029;28;8882;-71
2022/05/01 00:45:26;;;;;;;;;5.50;5.50;;;;;18.10;47.76;102595.50;5110866;28;8817;-71
2022/05/01 00:47:51;;;;;;;;;3.50;3.00;;;;;18.09;47.91;102585.78;5109897;28;9667;-71
2022/05/01 00:50:17;;;;;;;;;6.00;5.00;;;;;18.07;48.11;102593.69;5111061;28;8888;-71
2022/05/01 00:52:42;;;;;;;;;5.50;5.00;;;;;18.06;47.90;102584.00;5111183;28;9518;-71
2022/05/01 00:55:08;;;;;;;;;6.25;5.00;;;;;18.08;47.71;102584.00;5109920;28;8793;-71
2022/05/01 00:57:33;;;;;;;;;2.00;2.00;;;;;18.06;48.07;102578.72;5110875;28;9587;-71
2022/05/01 00:59:59;;;;;;;;;5.75;5.75;;;;;18.05;47.90;102579.56;5109591;28;9609;-71
2022/05/01 01:02:24;;;;;;;;;6.00;6.00;;;;;18.07;47.58;102579.59;5094883;28;8820;-71
2022/05/01 01:04:49;;;;;;;;;7.50;5.75;;;;;18.05;48.05;102576.03;5090197;28;8779;-71
2022/05/01 01:07:15;;;;;;;;;5.75;5.75;;;;;18.05;47.73;102576.91;5089462;28;8783;-70
2022/05/01 01:09:40;;;;;;;;;4.00;4.00;;;;;18.04;47.78;102569.84;5090369;28;8760;-70
2022/05/01 01:15:24;;;;;;;;;8.50;8.50;;;;;18.02;47.68;102568.03;5068019;28;8783;-71
2022/05/01 01:17:54;;;;;;;;;5.00;5.00;;;;;18.03;47.63;102572.47;5069641;28;9610;-71
2022/05/01 01:20:21;;;;;;;;;6.00;6.00;;;;;18.04;47.47;102571.59;5069734;28;9700;-70
2022/05/01 01:22:48;;;;;;;;;7.50;7.00;;;;;18.02;47.59;102570.69;5068943;28;9819;-70
2022/05/01 01:25:15;;;;;;;;;5.00;5.00;;;;;18.01;47.78;102569.78;5069718;28;10364;-70
2022/05/01 01:27:41;;;;;;;;;4.00;4.00;;;;;18.00;47.47;102573.28;5070013;28;9776;-70
2022/05/01 01:32:52;;;;;;;;;7.00;7.00;;;;;18.00;47.47;102569.75;5069198;28;9739;-70
2022/05/01 01:35:21;;;;;;;;;5.25;5.25;;;;;18.00;47.52;102565.38;5069170;28;9765;-70
2022/05/01 01:37:49;;;;;;;;;5.00;5.00;;;;;17.98;47.40;102567.09;5069273;28;9543;-70
2022/05/01 01:40:20;;;;;;;;;8.50;6.00;;;;;17.98;47.12;102566.22;5069843;28;9780;-70
2022/05/01 01:42:48;;;;;;;;;7.75;7.75;;;;;17.99;47.35;102560.06;5068718;28;9781;-70
2022/05/01 01:45:14;;;;;;;;;3.75;3.75;;;;;17.97;47.47;102567.06;5069861;28;9627;-70
2022/05/01 01:47:40;;;;;;;;;4.00;4.00;;;;;17.95;47.49;102559.13;5069322;28;9767;-70
2022/05/01 01:50:06;;;;;;;;;4.75;4.75;;;;;17.97;47.29;102564.41;5068561;28;9681;-70
2022/05/01 01:52:33;;;;;;;;;5.00;4.50;;;;;17.97;47.25;102567.06;5069350;28;9535;-70
2022/05/01 01:54:59;;;;;;;;;5.00;4.25;;;;;17.97;47.17;102567.94;5069560;28;8994;-70
2022/05/01 01:57:24;;;;;;;;;7.00;7.00;;;;;17.94;47.30;102567.91;5068907;28;9691;-69
2022/05/01 01:59:50;;;;;;;;;6.25;6.25;;;;;17.92;47.44;102564.31;5069071;28;8815;-69
2022/05/01 02:02:15;;;;;;;;;5.00;5.00;;;;;17.95;47.00;102574.97;5098033;28;8890;-69
2022/05/01 02:04:40;;;;;;;;;8.75;5.75;;;;;17.92;47.09;102566.97;5109166;28;9549;-69
2022/05/01 02:07:05;;;;;;;;;7.00;7.00;;;;;17.92;47.32;102571.38;5109737;28;8778;-70
2022/05/01 02:09:32;;;;;;;;;5.75;5.75;;;;;17.90;47.21;102576.63;5109874;28;8770;-70
2022/05/01 02:11:57;;;;;;;;;4.25;4.25;;;;;17.90;46.86;102568.69;5108885;28;8864;-69
2022/05/01 02:14:23;;;;;;;;;4.25;4.25;;;;;17.92;46.83;102571.38;5093689;28;10414;-70
2022/05/01 02:16:48;;;;;;;;;9.25;7.00;;;;;17.91;47.26;102567.84;5089397;28;8836;-70
2022/05/01 02:19:14;;;;;;;;;4.75;4.25;;;;;17.91;47.14;102566.97;5088881;28;8950;-69
2022/05/01 02:21:40;;;;;;;;;5.00;5.00;;;;;17.88;47.13;102558.97;5089460;28;8799;-70
2022/05/01 02:24:07;;;;;;;;;5.50;4.00;;;;;17.88;47.01;102555.44;5089318;28;8804;-69
2022/05/01 02:26:32;;;;;;;;;6.25;6.25;;;;;17.88;47.15;102556.34;5088805;28;9479;-69
2022/05/01 02:29:02;;;;;;;;;7.50;7.50;;;;;17.88;47.10;102555.44;5091482;28;9702;-70
2022/05/01 02:31:27;;;;;;;;;6.50;6.50;;;;;17.86;46.91;102551.91;5092694;28;8780;-69
2022/05/01 02:33:52;;;;;;;;;5.25;5.25;;;;;17.85;46.77;102550.13;5092641;28;9790;-69
2022/05/01 02:36:18;;;;;;;;;6.00;6.00;;;;;17.86;46.71;102543.97;5093240;28;8780;-69
2022/05/01 02:38:44;;;;;;;;;6.50;6.50;;;;;17.86;46.96;102543.97;5092520;28;8776;-69
2022/05/01 02:41:10;;;;;;;;;7.75;7.75;;;;;17.85;47.01;102547.47;5093276;28;8790;-69
2022/05/01 02:43:35;;;;;;;;;8.75;7.50;;;;;17.84;46.93;102548.34;5092869;28;10370;-69
2022/05/01 02:46:00;;;;;;;;;5.00;5.00;;;;;17.86;46.73;102545.72;5092073;28;8807;-69
2022/05/01 02:48:25;;;;;;;;;7.25;7.25;;;;;17.86;46.60;102540.44;5092881;28;8852;-69
2022/05/01 02:50:51;;;;;;;;;5.00;5.00;;;;;17.83;47.11;102538.63;5092650;28;9535;-69
2022/05/01 02:53:16;;;;;;;;;6.25;6.25;;;;;17.81;47.03;102542.97;5092053;28;8784;-70
2022/05/01 02:55:42;;;;;;;;;7.25;7.00;;;;;17.82;46.45;102543.88;5093063;28;8795;-69
2022/05/01 02:58:07;;;;;;;;;5.25;5.25;;;;;17.82;46.94;102542.13;5092777;28;8783;-69
2022/05/01 03:00:33;;;;;;;;;6.25;6.25;;;;;17.82;46.62;102541.25;5091707;28;8857;-69
2022/05/01 03:02:58;;;;;;;;;6.50;5.00;;;;;17.82;46.76;102543.88;5072137;28;8777;-69
2022/05/01 03:05:24;;;;;;;;;5.50;5.50;;;;;17.80;46.63;102535.94;5072126;28;9791;-70
2022/05/01 03:07:50;;;;;;;;;7.00;5.00;;;;;17.81;46.64;102531.53;5071310;28;8786;-70
2022/05/01 03:10:15;;;;;;;;;5.00;5.00;;;;;17.80;46.60;102528.03;5072653;28;8820;-70
2022/05/01 03:12:40;;;;;;;;;9.25;6.00;;;;;17.80;46.72;102530.66;5075739;28;8782;-70
2022/05/01 03:15:07;;;;;;;;;8.00;8.00;;;;;17.80;46.57;102532.41;5112044;28;8921;-70
2022/05/01 03:23:00;;;;;;;;;5.00;5.00;;;;;17.77;46.79;102527.94;5112748;28;9685;-71
2022/05/01 03:25:26;;;;;;;;;5.75;5.75;;;;;17.76;46.79;102523.53;5112671;28;10603;-71
2022/05/01 03:27:52;;;;;;;;;8.00;5.00;;;;;17.76;46.45;102525.28;5111684;28;8828;-71
2022/05/01 03:30:19;;;;;;;;;5.25;5.25;;;;;17.77;46.62;102532.34;5112580;28;9524;-71
2022/05/01 03:32:45;;;;;;;;;5.50;5.50;;;;;17.75;46.45;102519.09;5112638;28;9669;-71
2022/05/01 03:35:10;;;;;;;;;5.00;5.00;;;;;17.76;46.43;102526.19;5111858;28;9758;-71
2022/05/01 03:37:36;;;;;;;;;7.25;7.25;;;;;17.75;46.63;102520.84;5112739;28;9602;-71
2022/05/01 03:40:03;;;;;;;;;6.00;6.00;;;;;17.75;46.37;102519.09;5111037;28;8886;-71
2022/05/01 03:42:29;;;;;;;;;6.50;4.75;;;;;17.76;46.45;102520.91;5111762;28;8898;-71
2022/05/01 03:44:54;;;;;;;;;5.25;4.75;;;;;17.76;46.19;102517.34;5112003;28;9848;-71
2022/05/01 03:47:20;;;;;;;;;6.25;5.75;;;;;17.74;46.32;102517.31;5112699;28;8754;-71
2022/05/01 03:49:45;;;;;;;;;6.75;6.75;;;;;17.77;46.32;102519.16;5111766;28;8944;-71
2022/05/01 03:52:10;;;;;;;;;4.50;4.50;;;;;17.74;46.36;102525.25;5112479;28;8766;-71
2022/05/01 03:54:36;;;;;;;;;5.75;5.75;;;;;17.73;46.32;102522.59;5112257;28;8750;-70
2022/05/01 03:57:02;;;;;;;;;8.00;8.00;;;;;17.73;46.29;102518.16;5111044;28;9521;-71
2022/05/01 03:59:28;;;;;;;;;5.00;5.00;;;;;17.76;46.05;102518.25;5111999;28;8798;-71
2022/05/01 04:01:54;;;;;;;;;8.00;5.75;;;;;17.71;46.18;102514.63;5100139;28;9805;-70
2022/05/01 04:04:20;;;;;;;;;7.00;7.00;;;;;17.70;46.26;102515.47;5090810;28;9688;-71
2022/05/01 04:06:45;;;;;;;;;6.50;6.50;;;;;17.73;46.21;102517.31;5091428;28;8787;-71
2022/05/01 04:09:12;;;;;;;;;6.00;6.00;;;;;17.72;46.40;102518.16;5091954;28;8779;-70
2022/05/01 04:11:37;;;;;;;;;8.75;8.00;;;;;17.68;46.21;102526.88;5090678;28;8783;-71
2022/05/01 04:14:02;;;;;;;;;7.00;7.00;;;;;17.68;46.28;102519.84;5104379;28;9899;-71
2022/05/01 04:16:28;;;;;;;;;5.00;5.00;;;;;17.70;46.07;102525.16;5111534;28;8800;-71
2022/05/01 04:18:53;;;;;;;;;5.25;5.00;;;;;17.71;46.01;102527.84;5110774;28;8810;-71
2022/05/01 04:21:19;;;;;;;;;8.00;8.00;;;;;17.68;46.16;102519.84;5111452;28;8788;-71
2022/05/01 04:23:44;;;;;;;;;9.25;5.00;;;;;17.69;46.42;102516.34;5111580;28;8785;-71
2022/05/01 04:26:09;;;;;;;;;6.50;6.50;;;;;17.71;46.01;102519.00;5110831;28;8778;-71
2022/05/01 04:28:35;;;;;;;;;5.00;5.00;;;;;17.69;46.14;102519.00;5111279;28;9525;-70
2022/05/01 04:31:00;;;;;;;;;5.50;5.50;;;;;17.69;46.16;102523.38;5110475;28;8817;-71
2022/05/01 04:33:26;;;;;;;;;4.25;4.00;;;;;17.68;46.10;102516.31;5111563;28;8805;-71
2022/05/01 04:35:51;;;;;;;;;4.75;4.75;;;;;17.67;45.87;102518.06;5111221;28;8784;-71
2022/05/01 04:38:24;;;;;;;;;5.25;5.25;;;;;17.69;46.00;102519.00;5110526;28;9702;-71
2022/05/01 04:40:54;;;;;;;;;6.25;6.25;;;;;17.66;46.28;102521.56;5111074;28;8875;-71
2022/05/01 04:43:24;;;;;;;;;6.25;5.75;;;;;17.65;46.17;102525.09;5111187;28;9855;-71
2022/05/01 04:45:52;;;;;;;;;7.00;7.00;;;;;17.65;45.96;102516.25;5110354;28;9838;-71
2022/05/01 04:48:19;;;;;;;;;8.00;7.25;;;;;17.64;46.22;102523.28;5111137;28;10610;-71
2022/05/01 04:50:45;;;;;;;;;4.50;4.50;;;;;17.65;46.21;102521.56;5110687;28;9780;-71
2022/05/01 04:53:13;;;;;;;;;7.50;6.25;;;;;17.64;46.26;102525.94;5110427;28;9600;-71
2022/05/01 04:55:40;;;;;;;;;8.00;5.00;;;;;17.65;45.98;102535.66;5111211;28;9610;-71
2022/05/01 04:58:06;;;;;;;;;10.50;7.00;;;;;17.66;45.89;102533.88;5110482;28;9745;-71
2022/05/01 05:00:32;;;;;;;;;5.00;5.00;;;;;17.65;46.14;102535.66;5110323;28;9801;-71
2022/05/01 05:03:00;;;;;;;;;6.25;5.00;;;;;17.66;46.14;102532.13;5090176;28;10426;-71
2022/05/01 05:05:27;;;;;;;;;10.00;8.75;;;;;17.67;46.04;102533.03;5090227;28;8783;-71
2022/05/01 05:07:53;;;;;;;;;5.00;4.50;;;;;17.65;46.07;102535.66;5089686;28;9762;-70
2022/05/01 05:10:19;;;;;;;;;6.25;6.25;;;;;17.67;45.92;102541.84;5090324;28;9671;-71
2022/05/01 05:12:46;;;;;;;;;5.00;4.75;;;;;17.67;46.08;102543.59;5092150;28;8897;-71
2022/05/01 05:15:15;;;;;;;;;4.50;4.50;;;;;17.65;45.98;102548.84;5110109;28;8773;-70
2022/05/01 05:17:40;;;;;;;;;5.00;5.00;;;;;17.64;46.25;102551.44;5110038;28;9707;-70
2022/05/01 05:20:07;;;;;;;;;4.25;4.25;;;;;17.64;45.97;102557.63;5109581;28;9810;-71
2022/05/01 05:22:33;;;;;;;;;8.50;7.75;;;;;17.65;45.91;102553.25;5110602;28;8778;-71
2022/05/01 05:24:58;;;;;;;;;7.25;4.75;;;;;17.66;45.84;102552.38;5110440;28;9679;-71
2022/05/01 05:27:25;;;;;;;;;5.00;5.00;;;;;17.64;46.08;102559.38;5109883;28;8750;-71
2022/05/01 05:29:57;;;;;;;;;4.75;4.75;;;;;17.63;46.11;102557.59;5110569;28;8786;-71
2022/05/01 05:32:24;;;;;;;;;5.00;5.00;;;;;17.64;45.98;102564.66;5110590;28;9678;-70
2022/05/01 05:34:50;;;;;;;;;4.00;4.00;;;;;17.65;46.25;102558.53;5109259;28;9667;-71
2022/05/01 05:37:17;;;;;;;;;6.00;6.00;;;;;17.64;46.19;102560.28;5110276;28;9837;-70
2022/05/01 05:39:42;;;;;;;;;9.50;7.00;;;;;17.64;45.94;102559.38;5110414;28;9782;-70
2022/05/01 05:42:08;;;;;;;;;7.75;5.50;;;;;17.64;45.98;102570.84;5109386;28;9780;-70
2022/05/01 05:44:33;;;;;;;;;7.75;7.75;;;;;17.66;46.29;102570.84;5110463;28;9710;-70
2022/05/01 05:46:59;;;;;;;;;7.75;7.75;;;;;17.65;46.25;102571.75;5109805;28;8860;-70
2022/05/01 05:49:24;;;;;;;;;5.50;5.00;;;;;17.63;46.30;102571.69;5109667;28;8825;-71
2022/05/01 05:51:49;;;;;;;;;8.00;8.00;;;;;17.73;47.24;102576.28;5110057;28;9336;-71
2022/05/01 05:54:15;;;;;;;;;6.50;6.50;;;;;17.68;45.92;102575.31;5109598;28;8794;-70
2022/05/01 05:56:40;;;;;;;;;6.00;5.00;;;;;17.72;46.46;102571.88;5109393;28;9542;-70
2022/05/01 05:59:05;;;;;;;;;6.50;6.50;;;;;17.73;46.82;102578.94;5109624;28;8924;-70
2022/05/01 06:01:30;;;;;;;;;7.00;7.00;;;;;17.75;46.50;102582.50;5101552;28;8788;-70
2022/05/01 06:03:56;;;;;;;;;5.00;5.00;;;;;17.71;46.80;102578.03;5091049;28;8768;-70
2022/05/01 06:06:21;;;;;;;;;5.25;5.25;;;;;17.72;46.93;102581.56;5093678;28;8772;-70
2022/05/01 06:08:46;;;;;;;;;8.25;7.50;;;;;17.73;46.60;102586.84;5093406;28;8771;-70
2022/05/01 06:11:12;;;;;;;;;8.00;5.50;;;;;17.71;46.88;102580.66;5093317;28;8807;-70
2022/05/01 06:13:37;;;;;;;;;5.25;5.00;;;;;17.72;47.11;102586.84;5103233;28;8872;-70
2022/05/01 06:16:03;;;;;;;;;6.25;6.25;;;;;17.72;47.14;102592.13;5114058;28;8785;-70
2022/05/01 06:18:29;;;;;;;;;8.00;8.00;;;;;17.71;46.95;102585.94;5113020;28;8762;-70
2022/05/01 06:20:54;;;;;;;;;6.25;6.25;;;;;17.74;47.04;102587.75;5113765;28;9893;-71
2022/05/01 06:23:20;;;;;;;;;8.00;4.50;;;;;17.73;47.21;102586.84;5113862;28;8773;-70
2022/05/01 06:25:46;;;;;;;;;3.25;3.25;;;;;17.73;47.04;102592.13;5113159;28;8817;-71
2022/05/01 06:28:13;;;;;;;;;7.00;7.00;;;;;17.74;47.10;102587.75;5113784;28;9681;-71
2022/05/01 06:30:43;;;;;;;;;5.75;5.00;;;;;17.74;47.43;102585.09;5113083;28;9773;-71
2022/05/01 06:33:10;;;;;;;;;7.50;7.50;;;;;17.74;47.01;102583.38;5113763;28;10502;-71
2022/05/01 06:35:36;;;;;;;;;6.50;6.50;;;;;17.75;47.26;102589.53;5113555;28;9874;-71
2022/05/01 06:38:01;;;;;;;;;6.75;6.75;;;;;17.76;47.11;102576.38;5112618;28;9834;-70
2022/05/01 06:40:27;;;;;;;;;4.50;4.50;;;;;17.76;47.06;102579.03;5113571;28;9709;-70
2022/05/01 06:42:52;;;;;;;;;6.25;5.00;;;;;17.77;47.35;102577.28;5113258;28;8778;-70
2022/05/01 06:45:17;;;;;;;;;5.00;5.00;;;;;17.76;47.21;102573.72;5112963;28;9536;-70
2022/05/01 06:47:43;;;;;;;;;7.25;7.25;;;;;17.78;47.01;102576.38;5112689;28;8829;-70
2022/05/01 06:50:08;;;;;;;;;9.50;6.25;;;;;17.76;47.17;102581.66;5112934;28;8766;-70
2022/05/01 06:52:33;;;;;;;;;5.00;5.00;;;;;17.76;47.32;102579.03;5112355;28;8777;-70
2022/05/01 06:54:59;;;;;;;;;5.50;4.25;;;;;17.78;47.32;102579.03;5113357;28;8815;-70
2022/05/01 06:57:25;;;;;;;;;5.50;5.50;;;;;17.80;47.48;102574.69;5113275;28;8798;-70
2022/05/01 06:59:50;;;;;;;;;7.50;7.50;;;;;17.81;47.29;102579.09;5112302;28;8804;-70
2022/05/01 07:02:18;;;;;;;;;5.00;3.75;;;;;17.80;47.65;102577.31;5098720;28;8804;-70
2022/05/01 07:04:44;;;;;;;;;7.25;6.75;;;;;17.82;47.43;102573.84;5092273;28;8780;-70
2022/05/01 07:07:09;;;;;;;;;8.25;4.75;;;;;17.82;47.21;102572.94;5091953;28;9829;-70
2022/05/01 07:09:35;;;;;;;;;5.75;5.75;;;;;17.82;47.32;102573.84;5092725;28;8791;-70
2022/05/01 07:12:03;;;;;;;;;5.00;5.00;;;;;17.79;47.68;102568.50;5092172;28;8772;-70
2022/05/01 07:14:29;;;;;;;;;6.00;5.00;;;;;17.77;47.34;102575.50;5108511;28;8786;-71
2022/05/01 07:16:54;;;;;;;;;3.00;3.00;;;;;17.81;47.66;102574.69;5112200;28;9806;-71
2022/05/01 07:19:19;;;;;;;;;4.75;4.75;;;;;17.81;47.45;102569.41;5112268;28;8916;-70
2022/05/01 07:21:45;;;;;;;;;7.00;7.00;;;;;17.82;47.68;102575.59;5111782;28;8797;-71
2022/05/01 07:24:10;;;;;;;;;6.50;3.25;;;;;17.83;47.63;102578.28;5112721;28;8900;-70
2022/05/01 07:26:35;;;;;;;;;5.50;5.50;;;;;17.83;47.28;102580.91;5112961;28;8793;-70
2022/05/01 07:29:02;;;;;;;;;6.50;6.50;;;;;17.84;47.85;102576.53;5111905;28;8884;-70
2022/05/01 07:31:27;;;;;;;;;5.00;4.00;;;;;17.86;47.48;102575.69;5112746;28;8766;-71
2022/05/01 07:33:55;;;;;;;;;7.25;5.75;;;;;17.88;47.86;102580.13;5112028;28;9559;-70
2022/05/01 07:36:21;;;;;;;;;8.00;6.00;;;;;17.86;47.44;102578.31;5112695;28;8793;-71
2022/05/01 07:38:48;;;;;;;;;6.25;4.50;;;;;17.90;47.82;102570.44;5112064;28;9611;-70
2022/05/01 07:41:14;;;;;;;;;5.00;5.00;;;;;17.90;47.61;102573.09;5111736;28;8813;-70
2022/05/01 07:43:39;;;;;;;;;8.50;8.00;;;;;17.88;47.82;102568.66;5112165;28;10588;-70
2022/05/01 07:46:05;;;;;;;;;6.00;6.00;;;;;17.88;47.46;102567.78;5111810;28;8806;-71
2022/05/01 07:48:30;;;;;;;;;5.50;5.50;;;;;17.94;47.63;102570.53;5111515;28;8785;-70
2022/05/01 07:50:56;;;;;;;;;7.75;5.75;;;;;17.90;47.85;102567.81;5112262;28;9913;-70
2022/05/01 07:53:21;;;;;;;;;6.25;5.25;;;;;17.91;47.61;102572.25;5112357;28;8774;-70
2022/05/01 07:55:46;;;;;;;;;5.00;5.00;;;;;17.91;47.75;102564.31;5110899;28;8777;-70
2022/05/01 07:58:12;;;;;;;;;4.00;4.00;;;;;17.94;47.55;102569.66;5111981;28;8801;-70
2022/05/01 08:00:37;;;;;;;;;6.25;4.75;;;;;17.95;47.82;102567.06;5111271;28;8793;-71
2022/05/01 08:05:46;;;;;;;;;8.25;6.00;;;;;17.97;47.61;102572.34;5091160;28;8894;-69
2022/05/01 08:08:15;;;;;;;;;6.25;6.25;;;;;17.94;47.98;102565.25;5091423;28;9698;-70
2022/05/01 08:10:40;;;;;;;;;4.00;4.00;;;;;17.98;47.95;102564.47;5090654;28;8775;-70
2022/05/01 08:13:07;;;;;;;;;7.25;7.00;;;;;17.99;47.74;102560.97;5096242;28;9701;-70
2022/05/01 08:15:32;;;;;;;;;6.50;6.50;;;;;17.99;47.79;102568.88;5111783;28;8834;-70
2022/05/01 08:21:05;;;;;;;;;6.00;6.00;;;;;17.98;47.96;102567.09;5110214;28;9698;-70
2022/05/01 08:23:26;;;;;;;;;6.50;5.50;;;;;18.02;47.88;102568.03;5110774;28;9433;-70
2022/05/01 08:25:52;;;;;;;;;5.00;4.00;;;;;18.02;47.72;102560.13;5111229;28;9856;-70
2022/05/01 08:28:17;;;;;;;;;5.25;5.25;;;;;18.04;47.83;102561.03;5112307;28;8749;-70
2022/05/01 08:30:42;;;;;;;;;4.75;4.75;;;;;18.06;47.64;102561.97;5111680;28;8912;-70
2022/05/01 08:33:07;;;;;;;;;8.00;5.00;;;;;18.06;47.72;102554.03;5111732;28;8770;-70
2022/05/01 08:35:33;;;;;;;;;4.50;4.50;;;;;18.05;47.78;102550.50;5112058;28;8862;-70
2022/05/01 08:37:58;;;;;;;;;7.25;6.00;;;;;18.09;47.97;102557.63;5111210;28;8785;-70
2022/05/01 08:40:23;;;;;;;;;6.75;4.75;;;;;18.12;47.74;102554.13;5111993;28;8955;-71
2022/05/01 08:42:52;;;;;;;;;4.50;4.50;;;;;18.16;47.65;102556.84;5111407;28;8773;-70
2022/05/01 08:45:25;;;;;;;;;6.25;5.50;;;;;18.18;47.28;102552.47;5111323;28;8785;-70
2022/05/01 08:48:04;;;;;;;;;5.00;5.00;;;;;18.20;47.56;102540.19;5111500;28;9777;-70
2022/05/01 08:50:34;;;;;;;;;4.75;4.75;;;;;18.27;47.35;102547.34;5111841;28;9609;-70
2022/05/01 08:53:02;;;;;;;;;4.50;4.50;;;;;18.29;47.17;102544.75;5111032;28;9608;-70
2022/05/01 08:55:29;;;;;;;;;4.00;4.00;;;;;18.30;47.09;102543.88;5111909;28;9722;-70
2022/05/01 08:57:56;;;;;;;;;8.50;5.50;;;;;18.30;47.32;102544.75;5111682;28;10463;-70
2022/05/01 09:00:21;;;;;;;;;5.00;5.00;;;;;18.32;47.19;102542.16;5111242;28;9709;-70
2022/05/01 09:02:47;;;;;;;;;5.75;5.00;;;;;18.36;47.23;102546.63;5092234;28;10534;-70
2022/05/01 09:05:13;;;;;;;;;4.75;4.75;;;;;18.38;47.08;102536.97;5090548;28;8768;-70
2022/05/01 09:07:39;;;;;;;;;4.50;4.50;;;;;18.41;46.96;102546.72;5091331;28;8845;-70
2022/05/01 09:10:07;;;;;;;;;5.00;5.00;;;;;18.42;47.22;102546.72;5090881;28;8787;-70
2022/05/01 09:12:52;;;;;;;;;6.00;6.00;;;;;18.48;46.97;102541.56;5090846;28;9770;-70
2022/05/01 09:15:31;;;;;;;;;6.25;5.00;;;;;18.50;46.92;102552.13;5111638;28;9667;-70
2022/05/01 09:18:04;;;;;;;;;3.00;3.00;;;;;18.51;47.13;102548.63;5111229;28;9751;-70
2022/05/01 09:20:30;;;;;;;;;4.00;4.00;;;;;18.51;46.88;102549.56;5110340;28;9807;-70
2022/05/01 09:22:57;;;;;;;;;4.75;4.00;;;;;18.52;47.42;102546.03;5111396;28;10560;-68
2022/05/01 09:25:23;;;;;;;;;3.75;3.75;;;;;18.54;47.62;102548.72;5111480;28;9674;-73
2022/05/01 09:27:56;;;;;;;;;4.00;4.00;;;;;18.58;46.96;102550.53;5102833;28;9714;-70
2022/05/01 09:30:23;;;;;;;;;3.50;3.50;;;;;18.59;46.97;102563.81;5090801;28;10402;-70
2022/05/01 09:32:49;;;;;;;;;6.50;5.00;;;;;18.60;46.93;102557.63;5090756;28;9623;-70
2022/05/01 09:35:26;;;;;;;;;4.00;4.00;;;;;18.63;46.80;102556.81;5090597;28;10057;-70
2022/05/01 09:38:14;;;;;;;;;3.25;3.25;;;;;18.63;46.80;102556.81;5088725;28;9806;-70
2022/05/01 09:40:47;;;;;;;;;3.25;3.25;;;;;18.65;46.72;102553.31;5089956;28;10573;-70
2022/05/01 09:43:34;;;;;;;;;3.50;3.50;;;;;18.66;47.12;102554.22;5090973;28;9523;-70
2022/05/01 09:46:22;;;;;;;;;4.50;3.50;;;;;18.65;47.01;102552.41;5089197;28;9685;-70
2022/05/01 09:49:10;;;;;;;;;4.75;4.50;;;;;18.68;46.97;102561.28;5089390;28;9587;-70
2022/05/01 09:51:46;;;;;;;;;3.00;3.00;;;;;18.69;46.89;102559.53;5090910;28;9730;-70
2022/05/01 09:54:21;;;;;;;;;4.00;3.75;;;;;18.69;46.51;102559.53;5090683;28;9679;-70
2022/05/01 09:56:49;;;;;;;;;4.50;4.50;;;;;18.67;46.80;102545.41;5088267;28;9740;-70
2022/05/01 09:59:16;;;;;;;;;4.25;4.25;;;;;18.69;46.68;102543.66;5090293;28;9823;-70
2022/05/01 10:02:02;;;;;;;;;4.50;4.50;;;;;18.72;46.97;102546.34;5089935;28;9676;-70
2022/05/01 10:04:28;;;;;;;;;3.00;3.00;;;;;18.71;46.94;102545.47;5090378;28;9783;-70
2022/05/01 10:06:55;;;;;;;;;3.25;3.25;;;;;18.73;46.63;102548.13;5089386;28;9811;-70
2022/05/01 10:09:23;;;;;;;;;4.00;4.00;;;;;18.74;46.45;102547.28;5089735;28;9708;-69
2022/05/01 10:11:53;;;;;;;;;4.25;4.25;;;;;18.73;46.42;102549.03;5090262;28;9652;-70
2022/05/01 10:14:22;;;;;;;;;4.00;4.00;;;;;18.76;46.60;102550.81;5105789;28;9706;-70
2022/05/01 10:16:47;;;;;;;;;4.75;4.75;;;;;18.77;46.66;102552.63;5096846;28;9640;-69
2022/05/01 10:19:19;;;;;;;;;7.00;5.00;;;;;18.77;46.62;102553.50;5089995;28;9722;-70
2022/05/01 10:21:47;;;;;;;;;5.50;4.50;;;;;18.77;46.56;102544.69;5090354;28;8756;-69
2022/05/01 10:24:16;;;;;;;;;5.00;5.00;;;;;18.77;46.73;102548.22;5089671;28;9537;-69
2022/05/01 10:27:04;;;;;;;;;3.00;3.00;;;;;18.78;46.52;102544.69;5088749;28;9574;-69
2022/05/01 10:29:39;;;;;;;;;3.25;3.25;;;;;18.77;46.56;102540.28;5090325;28;9701;-69
2022/05/01 10:32:22;;;;;;;;;3.75;3.75;;;;;18.78;46.23;102541.19;5090440;28;10314;-69
2022/05/01 10:35:22;;;;;;;;;6.00;4.00;;;;;18.79;46.41;102533.25;5090196;28;9693;-70
2022/05/01 10:38:05;;;;;;;;;2.25;2.25;;;;;18.80;46.23;102529.72;5042202;28;9644;-69
2022/05/01 10:40:43;;;;;;;;;4.33;4.33;;;;;18.79;46.49;102532.34;5090024;28;10106;-70
2022/05/01 10:43:27;;;;;;;;;3.00;3.00;;;;;18.78;46.68;102520.88;5090310;28;9324;-69
2022/05/01 10:45:54;;;;;;;;;3.00;3.00;;;;;18.80;46.43;102520.91;5087582;28;9510;-70
2022/05/01 10:48:29;;;;;;;;;4.00;4.00;;;;;18.80;46.38;102521.78;5089565;28;9681;-70
2022/05/01 10:50:54;;;;;;;;;4.00;4.00;;;;;18.82;46.34;102514.75;5093142;28;9638;-69
2022/05/01 10:53:20;;;;;;;;;3.25;3.25;;;;;18.83;46.21;102513.91;5093929;28;9537;-70
2022/05/01 10:55:48;;;;;;;;;4.25;3.25;;;;;18.85;46.12;102502.44;5091779;28;8808;-70
2022/05/01 10:58:27;;;;;;;;;3.25;3.25;;;;;18.86;46.19;102504.25;5092803;28;8811;-70
2022/05/01 11:00:54;;;;;;;;;3.50;3.50;;;;;18.87;46.20;102500.69;5093143;28;10219;-70
2022/05/01 11:03:32;;;;;;;;;5.50;3.25;;;;;18.89;46.03;102501.63;5094075;28;9522;-70
2022/05/01 11:06:04;;;;;;;;;3.00;3.00;;;;;18.91;46.36;102497.22;5091480;28;10304;-70
2022/05/01 11:08:38;;;;;;;;;3.00;3.00;;;;;18.88;46.14;102495.44;5093329;28;9538;-70
2022/05/01 11:11:11;;;;;;;;;4.00;4.00;;;;;18.89;46.07;102488.41;5093277;28;9382;-70
2022/05/01 11:13:38;;;;;;;;;4.75;4.00;;;;;18.91;46.31;102489.28;5092618;28;9512;-70
2022/05/01 11:16:07;;;;;;;;;5.00;4.25;;;;;18.91;45.90;102486.63;5091761;28;9518;-70
2022/05/01 11:18:52;;;;;;;;;3.75;3.75;;;;;18.93;46.08;102479.63;5093043;28;9617;-70
2022/05/01 11:21:23;;;;;;;;;4.75;4.75;;;;;18.93;48.20;102482.28;5093304;28;9482;-68
2022/05/01 11:24:03;;;;;;;;;3.00;3.00;;;;;19.11;51.45;102471.91;5093493;28;9642;-69
2022/05/01 11:26:29;;;;;;;;;8.25;7.50;;;;;19.24;56.09;102477.38;5092409;28;9625;-69
2022/05/01 11:29:08;;;;;;;;;7.75;4.50;;;;;19.34;55.63;102470.44;5093215;28;9707;-68
2022/05/01 11:31:37;;;;;;;;;7.00;6.00;;;;;19.45;56.29;102460.00;5093235;28;9565;-68
2022/05/01 11:34:17;;;;;;;;;7.25;5.50;;;;;19.58;58.07;102468.06;5092326;28;9674;-68
2022/05/01 11:37:01;;;;;;;;;6.00;5.50;;;;;19.64;59.28;102462.88;5093309;28;10452;-68
2022/05/01 11:39:51;;;;;;;;;5.25;5.00;;;;;19.68;58.04;102462.00;5093255;28;9714;-69
2022/05/01 11:42:23;;;;;;;;;8.00;5.50;;;;;19.67;59.51;102454.94;5092469;28;9619;-70
2022/05/01 11:44:49;;;;;;;;;8.00;6.25;;;;;19.61;61.50;102449.56;5092933;28;9450;-70
2022/05/01 11:47:15;;;;;;;;;6.50;6.50;;;;;19.47;59.47;102448.53;5090943;28;9521;-71
2022/05/01 11:49:40;;;;;;;;;6.25;5.00;;;;;19.36;58.14;102450.16;5092872;28;8787;-72
2022/05/01 11:52:07;;;;;;;;;6.00;6.00;;;;;19.32;51.28;102450.97;5092110;28;9665;-71
2022/05/01 11:54:35;;;;;;;;;4.75;4.25;;;;;19.22;48.46;102454.41;5091894;28;8772;-72
2022/05/01 12:02:31;;;;;;;;;4.50;4.50;;;;;19.00;44.70;102436.47;5107094;28;9466;-71